Terminal Aerodrome Forecast
Issued by NWS

Home | Current Version | Previous Version | Text Only | Print | Product List | Glossary On
Versions: 1 2 3 4 5 6 7 8 9 10 11 12
000
FTUS42 KGSP 291120
TAFAND
TAF
KAND 291120Z 2912/3012 VRB03KT P6SM BKN080
     FM291700 13006KT P6SM BKN080
     FM292000 14006KT P6SM VCTS BKN050CB PROB30 2921/2922 4SM -TSRA
      OVC025CB
     FM300200 15004KT P6SM BKN030 PROB30 3004/3005 4SM -SHRA OVC003
     FM300500 15003KT P6SM BKN003 PROB30 3005/3010 4SM -SHRA
     FM301000 12003KT P6SM -SHRA BKN003=

USA.gov is the U.S. government's official web portal to all federal, state and local government web resources and services.